Time;durP1;ratioP1;P1;durP2;ratioP2;P2;SDS_P1;SDS_P2;PMS_P1;PMS_P2;Temp;Humidity;BMP_temperature;BMP_pressure;BME280_temperature;BME280_humidity;BME280_pressure;Samples;Min_cycle;Max_cycle;Signal;HPM_P1;HPM_P2
2022/08/30 00:03:29;;;;;;;7.70;7.22;;;22.20;51.70;;;;;;20701;6722;334977;-87
2022/08/30 00:06:05;;;;;;;7.33;6.63;;;22.20;51.60;;;;;;21014;6697;120672;-86
2022/08/30 00:08:39;;;;;;;7.50;7.00;;;22.10;51.50;;;;;;20995;6697;117110;-86
2022/08/30 00:11:14;;;;;;;7.20;6.80;;;21.80;51.80;;;;;;20948;6720;116178;-87
2022/08/30 00:13:50;;;;;;;8.37;7.70;;;21.60;52.30;;;;;;20754;6697;277794;-87
2022/08/30 00:16:29;;;;;;;7.53;7.03;;;21.90;52.40;;;;;;20939;6726;117236;-87
2022/08/30 00:19:06;;;;;;;8.50;8.00;;;21.90;52.20;;;;;;20698;6741;305092;-86
2022/08/30 00:21:41;;;;;;;8.03;7.53;;;22.10;52.80;;;;;;20972;6725;117068;-87
2022/08/30 00:24:17;;;;;;;7.90;7.40;;;22.00;52.50;;;;;;20840;6740;117119;-86
2022/08/30 00:26:53;;;;;;;10.13;9.20;;;21.90;53.20;;;;;;20614;6756;281982;-87
2022/08/30 00:29:29;;;;;;;8.65;8.05;;;21.90;53.90;;;;;;20685;6737;303669;-87
2022/08/30 00:32:04;;;;;;;9.77;8.97;;;22.30;53.00;;;;;;20691;6740;281955;-87
2022/08/30 00:34:43;;;;;;;9.33;8.73;;;22.50;52.10;;;;;;20552;6739;432258;-87
2022/08/30 00:37:19;;;;;;;7.97;7.47;;;22.60;52.10;;;;;;20821;6754;116934;-87
2022/08/30 00:39:54;;;;;;;8.30;7.70;;;22.30;52.30;;;;;;20858;6751;117390;-87
2022/08/30 00:42:26;;;;;;;8.10;7.63;;;21.90;52.80;;;;;;20824;6804;117123;-87
2022/08/30 00:45:13;;;;;;;8.77;8.03;;;21.50;53.30;;;;;;20712;6751;120499;-86
2022/08/30 00:47:48;;;;;;;9.10;8.50;;;21.30;53.70;;;;;;20680;6741;335725;-87
2022/08/30 00:50:26;;;;;;;9.10;8.50;;;22.00;53.50;;;;;;20731;6715;288556;-87
2022/08/30 00:53:02;;;;;;;8.40;7.90;;;21.90;53.30;;;;;;20795;6756;118170;-86
2022/08/30 00:55:37;;;;;;;8.20;7.60;;;21.80;53.20;;;;;;20613;6771;117034;-86
2022/08/30 00:58:14;;;;;;;8.60;8.10;;;21.60;53.60;;;;;;20840;6755;116955;-86
2022/08/30 01:00:49;;;;;;;8.40;7.70;;;21.40;53.90;;;;;;20847;6749;117006;-86
2022/08/30 01:03:25;;;;;;;9.40;8.70;;;21.50;53.70;;;;;;20669;6752;277734;-87
2022/08/30 01:06:00;;;;;;;9.15;8.55;;;21.50;53.70;;;;;;20671;6737;335145;-87
2022/08/30 01:08:39;;;;;;;8.53;7.77;;;21.90;52.90;;;;;;20906;6722;117101;-86
2022/08/30 01:11:12;;;;;;;9.00;8.30;;;21.80;52.80;;;;;;20663;6740;277403;-87
2022/08/30 01:13:49;;;;;;;9.52;8.73;;;21.80;52.80;;;;;;20625;6740;309759;-87
2022/08/30 01:16:24;;;;;;;8.67;8.00;;;22.10;52.20;;;;;;20790;6753;122757;-87
2022/08/30 01:19:00;;;;;;;7.37;6.87;;;21.80;52.30;;;;;;20919;6719;117158;-86
2022/08/30 01:21:46;;;;;;;9.10;8.40;;;21.40;52.90;;;;;;20721;6739;304205;-87
2022/08/30 01:24:21;;;;;;;9.55;8.80;;;21.50;53.00;;;;;;20652;6715;311172;-86
2022/08/30 01:26:57;;;;;;;9.53;8.83;;;21.80;52.60;;;;;;20765;6700;307514;-87
2022/08/30 01:29:33;;;;;;;9.50;8.90;;;21.90;52.20;;;;;;20863;6745;116509;-87
2022/08/30 01:32:19;;;;;;;9.80;9.20;;;21.70;52.50;;;;;;20612;6763;277239;-87
2022/08/30 01:34:54;;;;;;;8.60;8.10;;;21.70;52.70;;;;;;20740;6744;117804;-87
2022/08/30 01:37:31;;;;;;;8.83;8.03;;;21.40;52.90;;;;;;20880;6737;118307;-87
2022/08/30 01:40:07;;;;;;;9.10;8.50;;;21.10;53.40;;;;;;20619;6742;277769;-87
2022/08/30 01:42:42;;;;;;;8.50;7.73;;;21.20;53.60;;;;;;20901;6739;117094;-87
2022/08/30 01:45:18;;;;;;;7.83;7.23;;;21.20;53.80;;;;;;20810;6724;118969;-87
2022/08/30 01:47:54;;;;;;;7.50;6.80;;;21.00;54.20;;;;;;20921;6730;119208;-87
2022/08/30 01:50:31;;;;;;;8.33;7.50;;;20.80;54.60;;;;;;20590;6801;307181;-87
2022/08/30 01:53:07;;;;;;;8.00;7.40;;;21.10;54.80;;;;;;20877;6745;117550;-87
2022/08/30 01:55:43;;;;;;;8.03;7.37;;;21.10;54.50;;;;;;20684;6797;117981;-87
2022/08/30 01:58:19;;;;;;;8.10;7.60;;;20.90;54.50;;;;;;20855;6774;117236;-87
2022/08/30 02:00:55;;;;;;;9.60;9.00;;;20.60;54.60;;;;;;20668;6740;307301;-87
2022/08/30 02:03:33;;;;;;;9.63;8.93;;;20.90;54.30;;;;;;20675;6737;283315;-87
2022/08/30 02:06:09;;;;;;;9.50;8.90;;;21.30;53.70;;;;;;20714;6723;307038;-87
2022/08/30 02:08:44;;;;;;;8.50;7.83;;;21.50;53.10;;;;;;20921;6720;117824;-87
2022/08/30 02:11:20;;;;;;;10.05;9.15;;;21.30;53.30;;;;;;20729;6720;302140;-87
2022/08/30 02:13:57;;;;;;;9.07;8.17;;;21.30;53.30;;;;;;20917;6720;117114;-87
2022/08/30 02:16:32;;;;;;;9.63;9.00;;;21.10;53.40;;;;;;20685;6727;336449;-87
2022/08/30 02:19:17;;;;;;;9.73;9.10;;;21.30;53.30;;;;;;20690;6740;276403;-87
2022/08/30 02:21:44;;;;;;;9.83;9.13;;;21.50;52.80;;;;;;20740;6727;292021;-87
2022/08/30 02:24:19;;;;;;;9.37;8.83;;;21.60;52.50;;;;;;20610;6735;306664;-87
2022/08/30 02:29:05;;;;;;;8.17;7.67;;;21.80;52.10;;;;;;21462;6502;90703;-85
2022/08/30 02:31:31;;;;;;;7.80;7.40;;;21.60;52.60;;;;;;20938;6796;115959;-86
2022/08/30 02:33:56;;;;;;;8.73;8.00;;;21.20;53.30;;;;;;20895;6796;117775;-85
2022/08/30 02:36:22;;;;;;;8.70;8.00;;;20.90;53.70;;;;;;20503;6846;278787;-89
2022/08/30 02:38:49;;;;;;;9.77;9.00;;;21.00;53.80;;;;;;20561;6831;336422;-90
2022/08/30 02:41:15;;;;;;;9.37;8.13;;;21.30;53.00;;;;;;20721;6846;117634;-85
2022/08/30 02:43:41;;;;;;;9.93;9.27;;;21.20;53.10;;;;;;20504;6846;336744;-85
2022/08/30 02:46:07;;;;;;;10.10;9.50;;;21.30;53.20;;;;;;20541;6831;310462;-86
2022/08/30 02:48:32;;;;;;;9.23;8.63;;;21.40;53.30;;;;;;20744;6831;117871;-86
2022/08/30 02:50:58;;;;;;;10.15;9.45;;;21.20;52.80;;;;;;20558;6831;307471;-87
2022/08/30 02:53:23;;;;;;;8.60;8.03;;;21.20;52.90;;;;;;20753;6831;117436;-86
2022/08/30 02:55:49;;;;;;;10.10;9.40;;;21.00;53.20;;;;;;20561;6831;305676;-85
2022/08/30 02:58:14;;;;;;;8.87;8.20;;;21.00;53.30;;;;;;20773;6831;117359;-88
2022/08/30 03:00:40;;;;;;;10.05;9.45;;;20.90;53.60;;;;;;20535;6831;278484;-85
2022/08/30 03:03:07;;;;;;;10.00;9.32;;;21.00;53.50;;;;;;20550;6831;338856;-85
2022/08/30 03:05:32;;;;;;;9.20;8.60;;;21.20;53.10;;;;;;20543;6831;307030;-85
2022/08/30 03:08:00;;;;;;;8.90;8.40;;;21.10;53.10;;;;;;20761;6831;118442;-86
2022/08/30 03:10:26;;;;;;;9.45;8.85;;;21.10;53.10;;;;;;20527;6831;311918;-86
2022/08/30 03:12:53;;;;;;;10.07;9.17;;;21.10;53.20;;;;;;20544;6831;277953;-85
2022/08/30 03:15:18;;;;;;;9.63;9.03;;;21.30;52.80;;;;;;20545;6831;312398;-85
2022/08/30 03:17:45;;;;;;;9.70;9.10;;;21.40;52.50;;;;;;20544;6831;309730;-85
2022/08/30 03:20:11;;;;;;;9.70;9.10;;;21.50;52.50;;;;;;20549;6831;307061;-85
2022/08/30 03:22:36;;;;;;;8.97;8.40;;;21.60;52.60;;;;;;20533;6831;278247;-86
2022/08/30 03:25:02;;;;;;;9.60;8.90;;;21.60;52.70;;;;;;20549;6831;307957;-86
2022/08/30 03:27:28;;;;;;;8.87;8.27;;;21.40;52.90;;;;;;20751;6831;117815;-85
2022/08/30 03:29:55;;;;;;;9.18;8.48;;;21.40;52.90;;;;;;20553;6831;278017;-84
2022/08/30 03:32:21;;;;;;;8.88;8.32;;;21.40;52.90;;;;;;20554;6828;310620;-86
2022/08/30 03:34:46;;;;;;;9.20;8.50;;;21.50;53.20;;;;;;20628;6828;117841;-85
2022/08/30 03:37:13;;;;;;;8.23;7.70;;;21.30;53.30;;;;;;20781;6828;117393;-85
2022/08/30 03:39:39;;;;;;;8.53;8.03;;;20.80;53.50;;;;;;20568;6826;310633;-85
2022/08/30 03:42:04;;;;;;;7.90;7.50;;;20.80;54.20;;;;;;20784;6827;117816;-85
2022/08/30 03:44:30;;;;;;;8.27;7.78;;;20.70;53.70;;;;;;20570;6827;277967;-86
2022/08/30 03:46:55;;;;;;;8.48;7.80;;;20.80;53.80;;;;;;20575;6828;278262;-84
2022/08/30 03:49:22;;;;;;;8.65;8.00;;;21.20;52.80;;;;;;20578;6828;277556;-85
2022/08/30 03:51:47;;;;;;;8.43;7.73;;;21.20;52.80;;;;;;20776;6828;117299;-85
2022/08/30 03:54:13;;;;;;;8.70;7.43;;;21.00;52.90;;;;;;20784;6828;117149;-85
2022/08/30 03:56:40;;;;;;;9.35;8.75;;;20.60;53.50;;;;;;20546;6828;278345;-87
2022/08/30 03:59:07;;;;;;;9.73;9.10;;;20.70;53.70;;;;;;20567;6828;307236;-85
2022/08/30 04:01:32;;;;;;;9.05;8.55;;;20.90;53.40;;;;;;20567;6828;277911;-85
2022/08/30 04:03:58;;;;;;;8.60;8.00;;;21.00;53.20;;;;;;20778;6828;117362;-85
2022/08/30 04:06:23;;;;;;;10.63;9.73;;;20.80;53.40;;;;;;20765;6828;117310;-86
2022/08/30 04:08:49;;;;;;;8.70;8.17;;;20.50;53.90;;;;;;20783;6828;120702;-87
2022/08/30 04:11:15;;;;;;;9.25;8.27;;;20.00;55.20;;;;;;20785;6828;117152;-86
2022/08/30 04:13:41;;;;;;;8.83;8.23;;;19.90;54.90;;;;;;20771;6828;117119;-85
2022/08/30 04:16:06;;;;;;;8.27;7.67;;;19.80;55.20;;;;;;20773;6828;117662;-85
2022/08/30 04:18:34;;;;;;;9.17;8.57;;;19.70;55.50;;;;;;20475;6828;311880;-85
2022/08/30 04:20:57;;;;;;;8.13;7.67;;;19.90;55.20;;;;;;20760;6830;118342;-87
2022/08/30 04:23:24;;;;;;;9.88;9.18;;;20.20;55.40;;;;;;20556;6830;298816;-86
2022/08/30 04:25:51;;;;;;;9.10;8.60;;;20.20;55.30;;;;;;20772;6830;117740;-85
2022/08/30 04:28:16;;;;;;;10.67;9.80;;;20.20;55.10;;;;;;20572;6830;308077;-88
2022/08/30 04:30:42;;;;;;;10.43;9.63;;;20.30;54.50;;;;;;20539;6830;307899;-86
2022/08/30 04:33:09;;;;;;;10.38;9.60;;;20.60;53.90;;;;;;20560;6830;278058;-85
2022/08/30 04:35:36;;;;;;;10.43;9.73;;;20.80;53.70;;;;;;20535;6830;336934;-86
2022/08/30 04:38:01;;;;;;;9.23;8.50;;;20.90;53.20;;;;;;20776;6830;117914;-86
2022/08/30 04:40:27;;;;;;;10.13;9.53;;;20.60;53.50;;;;;;20541;6830;306606;-86
2022/08/30 04:42:53;;;;;;;9.98;9.27;;;20.60;53.70;;;;;;20546;6830;277133;-87
2022/08/30 04:45:18;;;;;;;10.67;9.93;;;20.70;53.40;;;;;;20540;6830;324588;-85
2022/08/30 04:47:43;;;;;;;10.03;9.33;;;20.90;52.90;;;;;;20548;6830;307507;-88
2022/08/30 04:50:09;;;;;;;10.52;9.82;;;21.00;52.80;;;;;;20558;6828;336540;-89
2022/08/30 04:52:36;;;;;;;10.57;9.88;;;21.00;52.70;;;;;;20615;6830;305437;-89
2022/08/30 04:55:06;;;;;;;10.47;9.67;;;21.10;52.50;;;;;;20663;6830;308025;-90
2022/08/30 04:57:34;;;;;;;10.20;9.50;;;21.10;52.60;;;;;;20683;6830;306785;-90
2022/08/30 05:00:00;;;;;;;9.50;8.80;;;21.10;52.50;;;;;;20894;6830;66300;-88
2022/08/30 05:02:28;;;;;;;9.37;8.67;;;20.80;53.00;;;;;;20504;6830;117658;-86
2022/08/30 05:07:42;;;;;;;9.77;8.97;;;20.40;54.30;;;;;;20904;6830;117432;-87
2022/08/30 05:10:12;;;;;;;10.60;10.00;;;20.30;54.60;;;;;;20692;6830;306299;-89
2022/08/30 05:12:40;;;;;;;9.23;8.53;;;20.40;54.60;;;;;;20881;6830;117539;-89
2022/08/30 05:15:06;;;;;;;8.80;8.10;;;20.40;54.80;;;;;;20912;6830;117394;-88
2022/08/30 05:17:34;;;;;;;9.37;8.77;;;20.10;55.30;;;;;;20912;6830;116615;-89
2022/08/30 05:20:01;;;;;;;10.07;9.35;;;20.00;55.70;;;;;;20673;6830;335403;-89
2022/08/30 05:22:27;;;;;;;8.97;8.37;;;20.20;55.90;;;;;;20815;6830;116876;-90
2022/08/30 05:24:52;;;;;;;9.97;9.17;;;20.30;55.80;;;;;;20792;6830;117435;-89
2022/08/30 05:27:18;;;;;;;10.13;9.40;;;20.10;55.80;;;;;;20574;6830;311885;-86
2022/08/30 05:29:47;;;;;;;10.23;9.50;;;20.80;54.60;;;;;;20570;6830;307011;-88
2022/08/30 05:32:13;;;;;;;9.80;8.93;;;20.80;54.50;;;;;;20777;6830;117873;-87
2022/08/30 05:34:39;;;;;;;8.73;8.03;;;20.60;54.90;;;;;;20736;6830;117647;-88
2022/08/30 05:37:04;;;;;;;9.98;9.30;;;20.60;55.00;;;;;;20559;6830;281730;-87
2022/08/30 05:39:30;;;;;;;8.53;8.03;;;20.80;54.70;;;;;;20565;6830;307094;-87
2022/08/30 05:41:58;;;;;;;8.80;8.07;;;21.20;54.30;;;;;;20769;6830;117829;-90
2022/08/30 05:44:24;;;;;;;8.90;8.15;;;21.10;54.20;;;;;;20546;6830;307948;-88
2022/08/30 05:46:49;;;;;;;8.77;8.13;;;21.30;54.20;;;;;;20556;6830;311179;-88
2022/08/30 05:49:15;;;;;;;8.00;7.50;;;21.50;53.70;;;;;;20560;6830;306563;-86
2022/08/30 05:51:40;;;;;;;7.70;7.10;;;21.70;53.50;;;;;;20548;6830;311509;-88
2022/08/30 05:54:07;;;;;;;7.40;6.80;;;21.80;52.70;;;;;;20771;6830;117205;-88
2022/08/30 05:56:33;;;;;;;7.63;6.93;;;21.60;52.90;;;;;;20753;6830;121600;-90
2022/08/30 05:59:00;;;;;;;7.40;6.90;;;21.30;53.30;;;;;;20751;6830;117351;-86
2022/08/30 06:01:33;;;;;;;8.07;7.27;;;21.00;53.80;;;;;;20767;6828;117216;-90
2022/08/30 06:03:59;;;;;;;8.23;7.63;;;20.70;54.70;;;;;;20739;6830;117125;-87
2022/08/30 06:06:25;;;;;;;7.50;7.00;;;20.70;54.60;;;;;;20749;6830;117210;-87
2022/08/30 06:08:51;;;;;;;8.03;6.80;;;20.60;55.00;;;;;;20768;6830;116431;-87
2022/08/30 06:11:18;;;;;;;8.47;7.67;;;20.50;54.80;;;;;;20791;6830;117634;-90
2022/08/30 06:13:43;;;;;;;7.77;7.27;;;20.50;55.60;;;;;;20771;6830;117897;-87
2022/08/30 06:16:12;;;;;;;9.50;8.80;;;20.50;55.20;;;;;;20615;6830;334934;-89
2022/08/30 06:18:37;;;;;;;8.70;8.00;;;20.80;55.30;;;;;;20804;6830;118380;-85
2022/08/30 06:21:04;;;;;;;9.45;8.60;;;21.20;54.80;;;;;;20546;6830;284699;-86
2022/08/30 06:23:29;;;;;;;9.43;8.83;;;21.10;54.70;;;;;;20546;6830;277522;-88
2022/08/30 06:25:56;;;;;;;9.43;8.57;;;21.60;54.00;;;;;;20765;6830;121290;-85
2022/08/30 06:28:22;;;;;;;9.32;8.73;;;21.80;54.10;;;;;;20521;6830;339833;-88
2022/08/30 06:30:50;;;;;;;9.27;8.53;;;22.10;53.80;;;;;;20775;6830;117969;-86
2022/08/30 06:33:17;;;;;;;9.83;9.10;;;22.50;53.00;;;;;;20557;6830;277465;-86
2022/08/30 06:35:42;;;;;;;9.60;9.00;;;22.40;52.90;;;;;;20547;6830;307491;-86
2022/08/30 06:38:10;;;;;;;9.52;8.93;;;23.10;52.10;;;;;;20557;6830;307834;-86
2022/08/30 06:40:37;;;;;;;8.57;8.00;;;23.00;51.70;;;;;;20748;6830;117740;-88
2022/08/30 06:43:03;;;;;;;9.07;8.47;;;23.00;51.70;;;;;;20764;6830;117355;-85
2022/08/30 06:45:35;;;;;;;8.17;7.50;;;22.90;52.20;;;;;;20758;6830;117770;-88
2022/08/30 06:48:01;;;;;;;8.83;8.00;;;22.70;52.50;;;;;;20759;6828;123190;-86
2022/08/30 06:50:27;;;;;;;9.17;8.47;;;22.60;52.70;;;;;;20530;6828;306637;-85
2022/08/30 06:52:52;;;;;;;9.03;8.30;;;22.80;52.50;;;;;;20772;6828;117464;-88
2022/08/30 06:55:18;;;;;;;8.40;7.90;;;22.90;52.40;;;;;;20781;6828;117643;-87
2022/08/30 06:57:43;;;;;;;9.10;8.40;;;22.90;52.70;;;;;;20564;6828;278058;-86
2022/08/30 07:00:10;;;;;;;9.30;8.60;;;23.60;52.20;;;;;;20561;6828;277094;-87
2022/08/30 07:02:36;;;;;;;8.93;8.32;;;24.00;51.20;;;;;;20547;6828;289348;-85
2022/08/30 07:05:03;;;;;;;9.48;8.80;;;23.90;51.10;;;;;;20555;6828;304191;-86
2022/08/30 07:07:29;;;;;;;8.87;8.17;;;24.20;50.70;;;;;;20572;6828;278046;-87
2022/08/30 07:09:54;;;;;;;8.98;8.18;;;24.50;50.10;;;;;;20567;6828;277575;-85
2022/08/30 07:12:20;;;;;;;9.20;8.48;;;24.80;49.70;;;;;;20575;6828;306584;-86
2022/08/30 07:14:45;;;;;;;8.03;7.43;;;25.00;49.40;;;;;;20754;6826;118003;-87
2022/08/30 07:19:58;;;;;;;8.70;8.10;;;25.10;49.50;;;;;;20559;6827;306675;-87
2022/08/30 07:22:25;;;;;;;7.70;6.90;;;25.40;48.60;;;;;;20763;6827;117380;-87
2022/08/30 07:24:53;;;;;;;9.23;8.50;;;25.50;49.00;;;;;;20558;6828;312008;-86
2022/08/30 07:27:20;;;;;;;7.93;7.33;;;25.70;48.80;;;;;;20774;6828;117409;-87
2022/08/30 07:29:45;;;;;;;8.40;7.70;;;25.70;48.90;;;;;;20560;6827;295518;-85
2022/08/30 07:32:11;;;;;;;7.82;7.07;;;25.90;48.40;;;;;;20588;6828;307461;-87
2022/08/30 07:34:43;;;;;;;8.20;7.17;;;26.30;47.70;;;;;;20801;6828;120777;-88
2022/08/30 07:37:08;;;;;;;7.40;6.80;;;26.30;47.70;;;;;;20604;6828;278430;-86
2022/08/30 07:39:34;;;;;;;8.13;7.60;;;26.60;47.60;;;;;;20577;6828;294835;-88
2022/08/30 07:41:59;;;;;;;7.45;6.85;;;27.00;46.50;;;;;;20565;6828;337802;-84
2022/08/30 07:44:26;;;;;;;8.33;7.40;;;27.70;44.50;;;;;;20549;6828;277603;-86
2022/08/30 07:46:51;;;;;;;8.32;7.40;;;27.70;44.50;;;;;;20562;6828;332883;-86
2022/08/30 07:49:18;;;;;;;8.30;7.57;;;28.00;43.90;;;;;;20563;6828;307028;-86
2022/08/30 07:51:43;;;;;;;8.03;7.33;;;28.20;42.90;;;;;;20561;6828;312489;-87
2022/08/30 07:54:10;;;;;;;7.90;7.30;;;28.30;43.30;;;;;;20554;6828;306582;-86
2022/08/30 07:56:35;;;;;;;9.03;8.30;;;28.50;42.60;;;;;;20556;6828;278801;-89
2022/08/30 07:59:05;;;;;;;7.90;7.30;;;28.50;42.00;;;;;;20785;6828;117216;-87
2022/08/30 08:01:31;;;;;;;8.40;7.60;;;28.40;41.90;;;;;;20781;6828;117271;-87
2022/08/30 08:03:57;;;;;;;8.07;7.47;;;28.10;42.80;;;;;;20784;6828;117829;-85
2022/08/30 08:06:22;;;;;;;8.07;7.30;;;27.80;43.60;;;;;;20607;6828;317745;-87
2022/08/30 08:08:48;;;;;;;7.87;7.10;;;28.00;43.50;;;;;;20792;6843;118005;-88
2022/08/30 08:11:16;;;;;;;7.57;6.95;;;28.00;43.70;;;;;;20824;6828;117838;-86
2022/08/30 08:13:44;;;;;;;7.77;7.17;;;28.00;44.60;;;;;;20740;6843;120268;-86
2022/08/30 08:16:12;;;;;;;8.30;7.50;;;28.00;44.30;;;;;;20560;6828;307348;-85
2022/08/30 08:18:38;;;;;;;7.50;7.00;;;28.30;43.20;;;;;;20717;6843;117659;-85
2022/08/30 08:21:06;;;;;;;7.37;6.97;;;28.20;43.60;;;;;;20769;6832;117366;-88
2022/08/30 08:23:31;;;;;;;7.43;6.80;;;28.20;43.60;;;;;;20530;6843;278593;-88
2022/08/30 08:25:57;;;;;;;7.47;6.93;;;28.50;43.30;;;;;;20733;6841;117332;-88
2022/08/30 08:28:23;;;;;;;7.90;7.40;;;28.70;43.00;;;;;;20724;6842;117651;-89
2022/08/30 08:30:50;;;;;;;7.70;7.00;;;28.70;43.10;;;;;;20799;6827;117442;-89
2022/08/30 08:33:16;;;;;;;7.50;6.93;;;28.90;42.00;;;;;;20577;6827;277482;-88
2022/08/30 08:35:42;;;;;;;7.20;6.70;;;28.90;41.90;;;;;;20558;6827;324524;-89
2022/08/30 08:38:07;;;;;;;7.33;6.70;;;29.30;41.50;;;;;;20781;6828;116752;-90
2022/08/30 08:40:50;;;;;;;7.53;6.93;;;29.70;41.60;;;;;;20535;6828;310783;-89
2022/08/30 08:43:19;;;;;;;7.33;6.80;;;29.70;41.60;;;;;;20540;6828;310652;-88
2022/08/30 08:46:04;;;;;;;7.57;7.00;;;30.10;40.70;;;;;;20564;6828;278341;-88
2022/08/30 08:48:35;;;;;;;7.30;6.80;;;30.40;40.00;;;;;;19638;7177;120076;-88
2022/08/30 08:53:49;;;;;;;7.32;6.82;;;30.20;40.80;;;;;;19745;6838;307646;-88
2022/08/30 08:56:15;;;;;;;7.65;7.05;;;30.30;39.40;;;;;;20459;6857;279961;-89
2022/08/30 08:58:45;;;;;;;7.40;6.83;;;30.60;38.80;;;;;;20488;6840;308665;-90
2022/08/30 09:01:11;;;;;;;8.13;7.43;;;30.70;38.70;;;;;;20481;6854;309874;-88
2022/08/30 09:03:39;;;;;;;7.70;7.00;;;31.10;38.40;;;;;;20472;6855;312426;-90
2022/08/30 09:06:20;;;;;;;6.93;6.43;;;31.00;38.40;;;;;;20711;6846;117924;-88
2022/08/30 09:08:46;;;;;;;7.00;6.60;;;31.00;38.80;;;;;;20693;6839;118300;-90
2022/08/30 09:11:15;;;;;;;7.35;6.85;;;30.70;39.20;;;;;;20538;6839;311597;-90
2022/08/30 09:13:39;;;;;;;7.27;6.77;;;30.80;38.90;;;;;;20459;6854;308877;-89
2022/08/30 09:16:05;;;;;;;8.07;6.20;;;31.10;38.10;;;;;;20761;6836;117800;-90
2022/08/30 09:18:45;;;;;;;7.10;6.60;;;31.00;38.30;;;;;;20538;6831;307207;-88
2022/08/30 09:21:10;;;;;;;6.90;6.30;;;31.00;37.40;;;;;;20476;6844;312414;-91
2022/08/30 09:23:49;;;;;;;6.63;6.13;;;31.20;37.80;;;;;;20547;6826;300766;-88
2022/08/30 09:26:15;;;;;;;6.80;6.10;;;31.30;37.00;;;;;;20470;6841;310876;-90
2022/08/30 09:28:47;;;;;;;6.75;6.25;;;31.60;37.10;;;;;;20467;6841;292767;-90
2022/08/30 09:31:26;;;;;;;6.40;5.90;;;31.50;37.00;;;;;;20753;6829;121386;-88
2022/08/30 09:34:00;;;;;;;6.07;5.77;;;31.40;37.60;;;;;;20741;6829;118268;-90
2022/08/30 09:36:26;;;;;;;6.10;5.60;;;31.10;37.70;;;;;;20727;6835;118487;-89
2022/08/30 09:39:02;;;;;;;6.00;5.70;;;30.80;38.10;;;;;;20752;6834;117305;-88
2022/08/30 09:41:27;;;;;;;6.37;5.87;;;30.70;38.30;;;;;;20739;6842;117337;-86
2022/08/30 09:44:06;;;;;;;6.17;5.77;;;30.60;38.30;;;;;;20680;6842;117317;-89
2022/08/30 09:46:31;;;;;;;5.57;5.27;;;30.60;38.80;;;;;;20683;6842;117743;-87
2022/08/30 09:48:58;;;;;;;5.60;5.30;;;30.60;38.50;;;;;;20716;6846;116150;-89
2022/08/30 09:51:43;;;;;;;6.00;5.50;;;30.60;38.50;;;;;;20736;6840;117648;-90
2022/08/30 09:54:11;;;;;;;5.90;5.50;;;30.60;38.30;;;;;;20505;6838;279129;-88
2022/08/30 09:56:51;;;;;;;5.80;5.40;;;31.10;37.50;;;;;;20496;6829;325628;-88
2022/08/30 09:59:40;;;;;;;6.07;5.67;;;31.60;36.60;;;;;;20750;6829;117171;-88
2022/08/30 10:02:19;;;;;;;5.80;5.33;;;31.70;36.40;;;;;;20729;6829;117721;-88
2022/08/30 10:04:58;;;;;;;5.50;5.20;;;31.40;36.40;;;;;;20733;6836;117733;-87
2022/08/30 10:07:33;;;;;;;5.68;5.28;;;31.60;35.40;;;;;;20479;6846;309972;-88
2022/08/30 10:10:20;;;;;;;5.80;5.33;;;31.60;35.20;;;;;;20625;6861;117471;-87
2022/08/30 10:13:03;;;;;;;5.60;5.30;;;31.70;35.80;;;;;;20409;6863;279203;-87
2022/08/30 10:15:42;;;;;;;5.67;5.27;;;32.20;33.80;;;;;;20437;6851;279238;-88
2022/08/30 10:18:27;;;;;;;5.60;5.20;;;32.20;33.80;;;;;;20563;6851;117631;-87
2022/08/30 10:20:53;;;;;;;5.80;5.50;;;32.20;34.60;;;;;;20525;6836;117290;-87
2022/08/30 10:23:18;;;;;;;5.40;5.10;;;32.00;34.90;;;;;;20504;6836;309903;-87
2022/08/30 10:25:51;;;;;;;5.73;5.40;;;32.00;33.90;;;;;;20506;6844;279334;-86
2022/08/30 10:28:33;;;;;;;6.40;5.90;;;32.30;34.90;;;;;;19874;6848;306236;-88
2022/08/30 10:30:59;;;;;;;5.10;4.80;;;32.50;34.30;;;;;;20556;6848;116520;-86
2022/08/30 10:33:24;;;;;;;5.70;5.30;;;32.40;34.30;;;;;;20687;6846;116984;-88
2022/08/30 10:35:50;;;;;;;5.53;5.22;;;32.20;34.50;;;;;;20462;6861;297014;-87
2022/08/30 10:38:25;;;;;;;5.60;5.20;;;32.20;34.50;;;;;;20489;6846;282540;-88
2022/08/30 10:41:14;;;;;;;5.80;5.00;;;32.40;34.90;;;;;;20716;6846;117590;-85
2022/08/30 10:43:56;;;;;;;5.10;4.90;;;32.30;34.70;;;;;;20732;6846;117474;-87
2022/08/30 10:46:42;;;;;;;7.80;5.13;;;31.90;35.10;;;;;;20109;6846;117822;-87
2022/08/30 10:49:09;;;;;;;5.32;5.00;;;31.90;35.10;;;;;;20540;6829;308501;-87
2022/08/30 10:51:38;;;;;;;5.67;5.17;;;32.10;34.30;;;;;;20684;6846;117328;-87
2022/08/30 10:54:06;;;;;;;5.37;4.97;;;32.20;34.40;;;;;;20302;6846;118758;-88
2022/08/30 10:56:32;;;;;;;6.53;5.03;;;32.00;34.50;;;;;;20714;6846;121097;-88
2022/08/30 10:58:58;;;;;;;5.47;5.10;;;31.80;34.60;;;;;;20797;6817;117921;-87
2022/08/30 11:01:46;;;;;;;5.07;4.77;;;31.70;34.70;;;;;;20853;6817;116243;-88
2022/08/30 11:04:28;;;;;;;7.50;4.80;;;31.60;34.50;;;;;;20785;6832;117169;-86
2022/08/30 11:07:10;;;;;;;5.07;4.68;;;31.50;34.40;;;;;;20553;6820;307460;-88
2022/08/30 11:10:05;;;;;;;6.23;4.47;;;31.80;32.50;;;;;;20606;6820;296756;-88
2022/08/30 11:12:35;;;;;;;4.57;4.22;;;32.50;30.40;;;;;;20578;6820;307515;-91
2022/08/30 11:15:11;;;;;;;4.43;4.20;;;32.50;31.40;;;;;;20799;6820;118096;-91
2022/08/30 11:17:41;;;;;;;5.43;5.07;;;32.60;31.40;;;;;;20279;6820;116273;-87
2022/08/30 11:20:07;;;;;;;4.60;4.30;;;32.20;32.10;;;;;;20728;6832;117582;-90
2022/08/30 11:22:33;;;;;;;4.70;4.40;;;32.20;32.10;;;;;;20684;6832;117197;-88
2022/08/30 11:25:11;;;;;;;4.83;4.53;;;32.10;32.40;;;;;;20709;6832;117440;-87
2022/08/30 11:27:50;;;;;;;4.80;4.45;;;32.00;32.10;;;;;;20548;6832;307577;-90
2022/08/30 11:30:28;;;;;;;7.27;4.70;;;32.20;31.30;;;;;;20751;6832;117216;-88
2022/08/30 11:33:03;;;;;;;4.60;4.40;;;32.20;31.90;;;;;;20771;6832;117550;-87
2022/08/30 11:35:45;;;;;;;4.57;4.17;;;32.20;31.90;;;;;;20733;6832;117665;-87
2022/08/30 11:38:12;;;;;;;4.67;4.33;;;32.10;32.00;;;;;;20473;6846;278564;-88
2022/08/30 11:40:48;;;;;;;4.90;4.40;;;32.30;31.60;;;;;;19925;6821;308031;-86
2022/08/30 11:43:33;;;;;;;4.43;4.10;;;32.70;31.30;;;;;;20747;6836;117888;-88
2022/08/30 11:46:25;;;;;;;4.50;4.30;;;32.70;31.30;;;;;;20729;6843;118302;-87
2022/08/30 11:49:13;;;;;;;4.10;3.90;;;32.50;31.50;;;;;;20581;6829;278884;-87
2022/08/30 11:51:59;;;;;;;4.30;4.00;;;32.50;29.90;;;;;;20782;6829;117830;-88
2022/08/30 11:54:41;;;;;;;4.07;3.83;;;32.40;30.00;;;;;;20725;6829;117424;-88
2022/08/30 11:57:30;;;;;;;4.23;4.03;;;32.20;30.60;;;;;;20728;6844;117393;-91
2022/08/30 12:00:26;;;;;;;4.40;4.00;;;32.00;30.60;;;;;;20528;6837;312592;-90
2022/08/30 12:02:55;;;;;;;4.25;4.05;;;32.20;30.60;;;;;;20532;6838;308406;-89
2022/08/30 12:05:41;;;;;;;4.10;3.90;;;32.50;29.80;;;;;;20559;6839;281174;-88
2022/08/30 12:08:05;;;;;;;3.87;3.67;;;32.90;30.30;;;;;;20719;6839;117254;-87
2022/08/30 12:10:37;;;;;;;4.10;3.90;;;32.90;30.00;;;;;;20510;6838;308145;-86
2022/08/30 12:13:03;;;;;;;4.47;4.17;;;33.00;30.00;;;;;;20765;6838;117421;-88
2022/08/30 12:15:48;;;;;;;3.90;3.70;;;33.10;30.30;;;;;;20768;6838;116531;-88
2022/08/30 12:18:28;;;;;;;4.43;4.13;;;33.00;29.70;;;;;;20755;6831;117799;-89
2022/08/30 12:20:54;;;;;;;4.07;3.87;;;32.90;30.00;;;;;;20538;6834;336677;-89
2022/08/30 12:23:20;;;;;;;4.30;4.00;;;33.50;29.30;;;;;;20480;6846;280342;-91
2022/08/30 12:25:45;;;;;;;4.13;3.83;;;33.50;29.20;;;;;;20680;6851;120485;-90
2022/08/30 12:28:24;;;;;;;4.13;3.93;;;33.50;29.60;;;;;;20698;6854;123067;-89
2022/08/30 12:30:50;;;;;;;4.47;4.10;;;33.30;29.50;;;;;;20507;6848;283129;-89
2022/08/30 12:33:31;;;;;;;4.50;4.20;;;33.30;29.10;;;;;;20486;6854;281582;-89
2022/08/30 12:35:58;;;;;;;7.80;4.10;;;33.50;28.60;;;;;;20700;6848;117413;-89
2022/08/30 12:38:22;;;;;;;4.50;4.10;;;33.40;29.10;;;;;;20684;6841;117842;-88
2022/08/30 12:40:55;;;;;;;4.00;3.80;;;33.00;29.30;;;;;;20791;6823;117416;-89
2022/08/30 12:43:22;;;;;;;4.28;4.07;;;33.10;29.40;;;;;;20570;6823;336796;-90
2022/08/30 12:45:47;;;;;;;4.50;4.20;;;33.20;29.00;;;;;;20764;6819;117465;-88
2022/08/30 12:48:13;;;;;;;4.45;4.15;;;33.20;29.20;;;;;;20499;6848;308472;-88
2022/08/30 12:50:42;;;;;;;4.10;3.90;;;33.30;29.20;;;;;;20691;6852;117723;-89
2022/08/30 12:53:10;;;;;;;4.43;4.13;;;33.20;29.10;;;;;;20718;6837;117252;-89
2022/08/30 12:55:49;;;;;;;4.50;4.20;;;33.10;29.10;;;;;;20501;6848;312588;-88
2022/08/30 12:58:16;;;;;;;4.30;4.10;;;33.20;29.40;;;;;;20685;6848;117236;-89
2022/08/30 13:00:43;;;;;;;4.32;4.03;;;33.20;29.30;;;;;;20454;6854;338317;-89
2022/08/30 13:03:26;;;;;;;4.60;4.30;;;33.30;29.20;;;;;;20661;6861;117297;-89
2022/08/30 13:05:51;;;;;;;4.93;4.23;;;33.20;29.20;;;;;;20663;6861;117348;-87